createdAt,value
2016-11-21T00:00:56.326Z,1022.76
2016-11-21T00:01:56.319Z,1022.79
2016-11-21T00:02:56.310Z,1022.79
2016-11-21T00:03:56.301Z,1022.78
2016-11-21T00:04:56.292Z,1022.79
2016-11-21T00:05:56.282Z,1022.81
2016-11-21T00:06:56.274Z,1022.85
2016-11-21T00:07:56.265Z,1022.86
2016-11-21T00:08:56.557Z,1022.9
2016-11-21T00:09:56.247Z,1022.91
2016-11-21T00:10:56.239Z,1022.94
2016-11-21T00:11:56.231Z,1022.98
2016-11-21T00:12:56.221Z,1022.91
2016-11-21T00:13:56.212Z,1022.93
2016-11-21T00:14:56.201Z,1022.95
2016-11-21T00:15:56.195Z,1022.95
2016-11-21T00:16:56.184Z,1022.97
2016-11-21T00:17:56.178Z,1022.99
2016-11-21T00:18:56.168Z,1023
2016-11-21T00:19:56.158Z,1022.98
2016-11-21T00:20:56.150Z,1023.01
2016-11-21T00:21:56.141Z,1022.99
2016-11-21T00:22:56.132Z,1022.96
2016-11-21T00:23:56.123Z,1022.97
2016-11-21T00:24:56.114Z,1022.97
2016-11-21T00:25:56.104Z,1022.98
2016-11-21T00:26:56.096Z,1022.98
2016-11-21T00:27:56.086Z,1022.97
2016-11-21T00:28:56.079Z,1023.02
2016-11-21T00:29:56.070Z,1023.01
2016-11-21T00:30:56.062Z,1023.01
2016-11-21T00:31:56.053Z,1022.96
2016-11-21T00:32:56.043Z,1022.97
2016-11-21T00:33:56.035Z,1022.97
2016-11-21T00:34:56.026Z,1023
2016-11-21T00:35:56.016Z,1023.04
2016-11-21T00:36:56.007Z,1023.06
2016-11-21T00:37:55.998Z,1023.06
2016-11-21T00:38:55.989Z,1023.07
2016-11-21T00:39:55.981Z,1023.09
2016-11-21T00:40:55.971Z,1023.12
2016-11-21T00:41:55.965Z,1023.15
2016-11-21T00:42:55.956Z,1023.13
2016-11-21T00:43:55.946Z,1023.14
2016-11-21T00:44:55.936Z,1023.19
2016-11-21T00:45:55.929Z,1023.2
2016-11-21T00:46:55.921Z,1023.18
2016-11-21T00:47:55.909Z,1023.17
2016-11-21T00:48:55.900Z,1023.22
2016-11-21T00:49:55.892Z,1023.21
2016-11-21T00:50:55.882Z,1023.23
2016-11-21T00:51:55.875Z,1023.23
2016-11-21T00:52:55.865Z,1023.27
2016-11-21T00:53:55.859Z,1023.26
2016-11-21T00:54:55.848Z,1023.29
2016-11-21T00:55:55.839Z,1023.26
2016-11-21T00:56:55.831Z,1023.3
2016-11-21T00:57:55.823Z,1023.25
2016-11-21T00:58:55.813Z,1023.27
2016-11-21T00:59:55.804Z,1023.26
2016-11-21T01:00:55.806Z,1023.26
2016-11-21T01:01:55.785Z,1023.24
2016-11-21T01:02:55.777Z,1023.26
2016-11-21T01:03:55.769Z,1023.23
2016-11-21T01:04:55.760Z,1023.24
2016-11-21T01:05:55.750Z,1023.26
2016-11-21T01:06:55.743Z,1023.2
2016-11-21T01:07:55.733Z,1023.23
2016-11-21T01:08:55.726Z,1023.26
2016-11-21T01:09:55.716Z,1023.25
2016-11-21T01:10:55.709Z,1023.22
2016-11-21T01:11:55.699Z,1023.26
2016-11-21T01:12:55.689Z,1023.24
2016-11-21T01:13:55.681Z,1023.24
2016-11-21T01:14:55.671Z,1023.22
2016-11-21T01:15:55.663Z,1023.23
2016-11-21T01:16:55.657Z,1023.23
2016-11-21T01:17:55.645Z,1023.31
2016-11-21T01:18:55.636Z,1023.3
2016-11-21T01:19:55.628Z,1023.34
2016-11-21T01:20:55.618Z,1023.37
2016-11-21T01:21:55.609Z,1023.37
2016-11-21T01:22:55.602Z,1023.38
2016-11-21T01:23:55.591Z,1023.38
2016-11-21T01:24:55.582Z,1023.38
2016-11-21T01:25:55.574Z,1023.46
2016-11-21T01:26:55.566Z,1023.45
2016-11-21T01:27:55.556Z,1023.47
2016-11-21T01:28:55.548Z,1023.47
2016-11-21T01:29:55.538Z,1023.52
2016-11-21T01:30:55.532Z,1023.52
2016-11-21T01:31:55.522Z,1023.52
2016-11-21T01:32:55.512Z,1023.57
2016-11-21T01:33:55.505Z,1023.57
2016-11-21T01:34:55.494Z,1023.58
2016-11-21T01:35:55.486Z,1023.64
2016-11-21T01:36:55.477Z,1023.64
2016-11-21T01:37:55.468Z,1023.67
2016-11-21T01:38:55.460Z,1023.67
2016-11-21T01:39:55.451Z,1023.75
2016-11-21T01:40:55.441Z,1023.75
2016-11-21T01:41:55.432Z,1023.78
2016-11-21T01:42:55.423Z,1023.75
2016-11-21T01:43:55.415Z,1023.74
2016-11-21T01:44:55.404Z,1023.77
2016-11-21T01:45:55.396Z,1023.74
2016-11-21T01:46:55.388Z,1023.76
2016-11-21T01:47:55.378Z,1023.77
2016-11-21T01:48:55.369Z,1023.72
2016-11-21T01:49:55.360Z,1023.75
2016-11-21T01:50:55.352Z,1023.75
2016-11-21T01:51:55.343Z,1023.71
2016-11-21T01:52:55.334Z,1023.75
2016-11-21T01:53:55.327Z,1023.74
2016-11-21T01:54:55.314Z,1023.72
2016-11-21T01:55:55.307Z,1023.71
2016-11-21T01:56:55.298Z,1023.68
2016-11-21T01:57:55.289Z,1023.73
2016-11-21T01:58:55.280Z,1023.67
2016-11-21T01:59:55.271Z,1023.74
2016-11-21T02:00:55.261Z,1023.74
2016-11-21T02:01:55.253Z,1023.79
2016-11-21T02:02:55.245Z,1023.79
2016-11-21T02:03:55.234Z,1023.74
2016-11-21T02:04:55.226Z,1023.78
2016-11-21T02:05:55.218Z,1023.77
2016-11-21T02:06:55.208Z,1023.76
2016-11-21T02:07:55.198Z,1023.75
2016-11-21T02:08:55.190Z,1023.79
2016-11-21T02:09:55.181Z,1023.8
2016-11-21T02:10:55.172Z,1023.77
2016-11-21T02:11:55.162Z,1023.74
2016-11-21T02:12:55.152Z,1023.76
2016-11-21T02:13:55.144Z,1023.76
2016-11-21T02:14:55.135Z,1023.75
2016-11-21T02:15:55.126Z,1023.71
2016-11-21T02:16:55.118Z,1023.72
2016-11-21T02:17:55.110Z,1023.69
2016-11-21T02:18:55.100Z,1023.74
2016-11-21T02:19:55.090Z,1023.71
2016-11-21T02:20:55.082Z,1023.71
2016-11-21T02:21:55.073Z,1023.71
2016-11-21T02:22:55.063Z,1023.69
2016-11-21T02:23:55.054Z,1023.74
2016-11-21T02:24:55.046Z,1023.8
2016-11-21T02:25:55.035Z,1023.88
2016-11-21T02:26:55.027Z,1023.87
2016-11-21T02:27:55.017Z,1023.89
2016-11-21T02:28:55.010Z,1023.93
2016-11-21T02:29:55.000Z,1023.99
2016-11-21T02:30:54.991Z,1023.98
2016-11-21T02:31:54.981Z,1024.01
2016-11-21T02:32:54.973Z,1024.01
2016-11-21T02:33:54.962Z,1024.01
2016-11-21T02:34:54.955Z,1024.01
2016-11-21T02:35:54.946Z,1024.02
2016-11-21T02:36:54.936Z,1024.01
2016-11-21T02:37:54.926Z,1024.01
2016-11-21T02:38:54.917Z,1024.04
2016-11-21T02:39:54.909Z,1023.94
2016-11-21T02:40:54.897Z,1023.95
2016-11-21T02:41:54.890Z,1023.93
2016-11-21T02:42:54.882Z,1023.95
2016-11-21T02:43:54.873Z,1023.97
2016-11-21T02:44:54.861Z,1024.04
2016-11-21T02:45:54.854Z,1024.05
2016-11-21T02:46:54.844Z,1024.1
2016-11-21T02:47:54.834Z,1024.07
2016-11-21T02:48:54.825Z,1024.08
2016-11-21T02:49:54.816Z,1024.02
2016-11-21T02:50:54.808Z,1024.04
2016-11-21T02:51:54.797Z,1024.06
2016-11-21T02:52:54.789Z,1024.09
2016-11-21T02:53:54.780Z,1024.03
2016-11-21T02:54:54.771Z,1024.03
2016-11-21T02:55:54.760Z,1024.05
2016-11-21T02:56:54.752Z,1024.08
2016-11-21T02:57:54.743Z,1024.07
2016-11-21T02:58:54.733Z,1024.12
2016-11-21T02:59:54.724Z,1024.1
2016-11-21T03:00:54.715Z,1024.11
2016-11-21T03:01:54.706Z,1024.13
2016-11-21T03:02:54.696Z,1024.09
2016-11-21T03:03:54.686Z,1024.08
2016-11-21T03:04:54.677Z,1024.1
2016-11-21T03:05:54.669Z,1024.12
2016-11-21T03:06:54.660Z,1024.1
2016-11-21T03:07:54.650Z,1024.2
2016-11-21T03:08:54.640Z,1024.16
2016-11-21T03:09:54.634Z,1024.19
2016-11-21T03:10:54.622Z,1024.18
2016-11-21T03:11:54.612Z,1024.25
2016-11-21T03:12:54.604Z,1024.25
2016-11-21T03:13:54.593Z,1024.26
2016-11-21T03:14:54.584Z,1024.24
2016-11-21T03:15:54.575Z,1024.26
2016-11-21T03:16:54.567Z,1024.22
2016-11-21T03:17:54.556Z,1024.27
2016-11-21T03:18:54.546Z,1024.27
2016-11-21T03:19:54.536Z,1024.24
2016-11-21T03:20:54.525Z,1024.28
2016-11-21T03:21:54.517Z,1024.28
2016-11-21T03:22:54.508Z,1024.29
2016-11-21T03:23:54.500Z,1024.3
2016-11-21T03:24:54.489Z,1024.32
2016-11-21T03:25:54.478Z,1024.33
2016-11-21T03:26:54.470Z,1024.38
2016-11-21T03:27:54.461Z,1024.32
2016-11-21T03:28:54.452Z,1024.35
2016-11-21T03:29:54.442Z,1024.36
2016-11-21T03:30:54.433Z,1024.39
2016-11-21T03:31:54.422Z,1024.44
2016-11-21T03:32:54.414Z,1024.45
2016-11-21T03:33:54.404Z,1024.48
2016-11-21T03:34:54.398Z,1024.49
2016-11-21T03:35:54.384Z,1024.46
2016-11-21T03:36:54.375Z,1024.45
2016-11-21T03:37:54.366Z,1024.44
2016-11-21T03:38:54.355Z,1024.41
2016-11-21T03:39:54.345Z,1024.38
2016-11-21T03:40:54.336Z,1024.36
2016-11-21T03:41:54.327Z,1024.34
2016-11-21T03:42:54.316Z,1024.37
2016-11-21T03:43:54.308Z,1024.37
2016-11-21T03:44:54.297Z,1024.38
2016-11-21T03:45:54.288Z,1024.42
2016-11-21T03:46:54.277Z,1024.45
2016-11-21T03:47:54.268Z,1024.49
2016-11-21T03:48:54.258Z,1024.49
2016-11-21T03:49:54.248Z,1024.51
2016-11-21T03:50:54.240Z,1024.5
2016-11-21T03:51:54.229Z,1024.54
2016-11-21T03:52:54.221Z,1024.54
2016-11-21T03:53:54.210Z,1024.58
2016-11-21T03:54:54.200Z,1024.58
2016-11-21T03:55:54.190Z,1024.55
2016-11-21T03:56:54.181Z,1024.59
2016-11-21T03:57:54.170Z,1024.57
2016-11-21T03:58:54.161Z,1024.54
2016-11-21T03:59:54.151Z,1024.55
2016-11-21T04:00:54.141Z,1024.52
2016-11-21T04:01:54.131Z,1024.52
2016-11-21T04:02:54.121Z,1024.56
2016-11-21T04:03:54.113Z,1024.54
2016-11-21T04:04:54.101Z,1024.52
2016-11-21T04:05:54.092Z,1024.47
2016-11-21T04:06:54.083Z,1024.46
2016-11-21T04:07:54.073Z,1024.48
2016-11-21T04:08:54.061Z,1024.48
2016-11-21T04:09:54.052Z,1024.46
2016-11-21T04:10:54.042Z,1024.49
2016-11-21T04:11:54.031Z,1024.48
2016-11-21T04:12:54.022Z,1024.47
2016-11-21T04:13:54.012Z,1024.52
2016-11-21T04:14:54.003Z,1024.54
2016-11-21T04:15:53.991Z,1024.58
2016-11-21T04:16:53.983Z,1024.62
2016-11-21T04:17:53.973Z,1024.59
2016-11-21T04:18:53.962Z,1024.68
2016-11-21T04:19:53.953Z,1024.65
2016-11-21T04:20:53.943Z,1024.63
2016-11-21T04:21:53.933Z,1024.6
2016-11-21T04:22:53.922Z,1024.61
2016-11-21T04:23:53.912Z,1024.7
2016-11-21T04:24:53.902Z,1024.75
2016-11-21T04:25:53.892Z,1024.75
2016-11-21T04:26:53.881Z,1024.75
2016-11-21T04:27:53.871Z,1024.74
2016-11-21T04:28:53.862Z,1024.74
2016-11-21T04:29:53.853Z,1024.74
2016-11-21T04:30:53.842Z,1024.82
2016-11-21T04:31:53.832Z,1024.83
2016-11-21T04:32:53.822Z,1024.83
2016-11-21T04:33:53.811Z,1024.86
2016-11-21T04:34:53.803Z,1024.82
2016-11-21T04:35:53.793Z,1024.86
2016-11-21T04:36:53.781Z,1024.83
2016-11-21T04:37:53.769Z,1024.87
2016-11-21T04:38:53.760Z,1024.87
2016-11-21T04:39:53.750Z,1024.92
2016-11-21T04:40:53.741Z,1024.93
2016-11-21T04:41:53.731Z,1024.96
2016-11-21T04:42:53.721Z,1024.99
2016-11-21T04:43:53.712Z,1024.99
2016-11-21T04:44:53.699Z,1024.99
2016-11-21T04:45:53.690Z,1025.02
2016-11-21T04:46:53.680Z,1025.04
2016-11-21T04:47:53.669Z,1025.02
2016-11-21T04:48:53.659Z,1025.03
2016-11-21T04:49:53.650Z,1025.07
2016-11-21T04:50:53.640Z,1025.09
2016-11-21T04:51:53.628Z,1025.05
2016-11-21T04:52:53.619Z,1025.1
2016-11-21T04:53:53.608Z,1025.06
2016-11-21T04:54:53.598Z,1025.08
2016-11-21T04:55:53.587Z,1025.11
2016-11-21T04:56:53.576Z,1025.14
2016-11-21T04:57:53.567Z,1025.16
2016-11-21T04:58:53.557Z,1025.18
2016-11-21T04:59:53.545Z,1025.21
2016-11-21T05:00:53.536Z,1025.2
2016-11-21T05:01:53.532Z,1025.19
2016-11-21T05:02:53.515Z,1025.22
2016-11-21T05:03:53.504Z,1025.25
2016-11-21T05:04:53.496Z,1025.22
2016-11-21T05:05:53.485Z,1025.18
2016-11-21T05:06:53.474Z,1025.18
2016-11-21T05:07:53.464Z,1025.18
2016-11-21T05:08:53.454Z,1025.14
2016-11-21T05:09:53.444Z,1025.19
2016-11-21T05:10:53.434Z,1025.2
2016-11-21T05:11:53.423Z,1025.2
2016-11-21T05:12:53.412Z,1025.17
2016-11-21T05:13:53.401Z,1025.16
2016-11-21T05:14:53.390Z,1025.16
2016-11-21T05:15:53.389Z,1025.2
2016-11-21T05:16:53.371Z,1025.2
2016-11-21T05:17:53.361Z,1025.22
2016-11-21T05:18:53.349Z,1025.24
2016-11-21T05:19:53.341Z,1025.24
2016-11-21T05:20:53.331Z,1025.18
2016-11-21T05:21:53.318Z,1025.2
2016-11-21T05:22:53.309Z,1025.25
2016-11-21T05:23:53.298Z,1025.23
2016-11-21T05:24:53.287Z,1025.29
2016-11-21T05:25:53.278Z,1025.32
2016-11-21T05:26:53.268Z,1025.37
2016-11-21T05:27:53.258Z,1025.37
2016-11-21T05:28:53.247Z,1025.42
2016-11-21T05:29:53.236Z,1025.42
2016-11-21T05:30:53.226Z,1025.39
2016-11-21T05:31:53.217Z,1025.46
2016-11-21T05:32:53.205Z,1025.43
2016-11-21T05:33:53.195Z,1025.41
2016-11-21T05:34:53.185Z,1025.45
2016-11-21T05:35:53.173Z,1025.45
2016-11-21T05:36:53.163Z,1025.46
2016-11-21T05:37:53.153Z,1025.47
2016-11-21T05:38:53.144Z,1025.52
2016-11-21T05:39:53.133Z,1025.53
2016-11-21T05:40:53.122Z,1025.53
2016-11-21T05:41:53.112Z,1025.57
2016-11-21T05:42:53.103Z,1025.6
2016-11-21T05:43:53.092Z,1025.63
2016-11-21T05:44:53.082Z,1025.63
2016-11-21T05:45:53.072Z,1025.64
2016-11-21T05:46:53.060Z,1025.67
2016-11-21T05:47:53.051Z,1025.71
2016-11-21T05:48:53.039Z,1025.71
2016-11-21T05:49:53.028Z,1025.71
2016-11-21T05:50:53.019Z,1025.71
2016-11-21T05:51:53.009Z,1025.72
2016-11-21T05:52:52.999Z,1025.76
2016-11-21T05:53:52.987Z,1025.77
2016-11-21T05:54:52.977Z,1025.79
2016-11-21T05:55:52.967Z,1025.78
2016-11-21T05:56:52.956Z,1025.82
2016-11-21T05:57:52.944Z,1025.82
2016-11-21T05:58:52.934Z,1025.77
2016-11-21T05:59:52.925Z,1025.76
2016-11-21T06:00:52.914Z,1025.79
2016-11-21T06:01:52.902Z,1025.76
2016-11-21T06:02:52.892Z,1025.76
2016-11-21T06:03:52.882Z,1025.77
2016-11-21T06:04:52.873Z,1025.77
2016-11-21T06:05:52.861Z,1025.82
2016-11-21T06:06:52.851Z,1025.84
2016-11-21T06:07:52.840Z,1025.86
2016-11-21T06:08:52.829Z,1025.85
2016-11-21T06:09:52.819Z,1025.94
2016-11-21T06:10:52.813Z,1025.96
2016-11-21T06:11:52.798Z,1026.03
2016-11-21T06:12:52.786Z,1026.06
2016-11-21T06:13:52.776Z,1026.08
2016-11-21T06:14:52.766Z,1026.12
2016-11-21T06:15:52.756Z,1026.12
2016-11-21T06:16:52.746Z,1026.11
2016-11-21T06:17:52.736Z,1026.13
2016-11-21T06:18:52.726Z,1026.12
2016-11-21T06:19:52.714Z,1026.09
2016-11-21T06:20:52.702Z,1026.09
2016-11-21T06:21:52.693Z,1026.09
2016-11-21T06:22:52.683Z,1026.12
2016-11-21T06:23:52.676Z,1026.1
2016-11-21T06:24:52.663Z,1026.12
2016-11-21T06:25:52.649Z,1026.08
2016-11-21T06:26:52.639Z,1026.08
2016-11-21T06:27:52.628Z,1026.07
2016-11-21T06:28:52.617Z,1026.06
2016-11-21T06:29:52.606Z,1026.08
2016-11-21T06:30:52.595Z,1026.08
2016-11-21T06:31:52.587Z,1026.09
2016-11-21T06:32:52.574Z,1026.12
2016-11-21T06:33:52.565Z,1026.15
2016-11-21T06:34:52.553Z,1026.12
2016-11-21T06:35:52.545Z,1026.19
2016-11-21T06:36:52.532Z,1026.17
2016-11-21T06:37:52.520Z,1026.15
2016-11-21T06:38:52.511Z,1026.14
2016-11-21T06:39:52.500Z,1026.11
2016-11-21T06:40:52.490Z,1026.17
2016-11-21T06:41:52.480Z,1026.1
2016-11-21T06:42:52.468Z,1026.11
2016-11-21T06:43:52.457Z,1026.06
2016-11-21T06:44:52.447Z,1026.08
2016-11-21T06:45:52.435Z,1026.04
2016-11-21T06:46:52.425Z,1026.03
2016-11-21T06:47:52.414Z,1026.01
2016-11-21T06:48:52.404Z,1026.06
2016-11-21T06:49:52.393Z,1026
2016-11-21T06:50:52.383Z,1025.99
2016-11-21T06:51:52.373Z,1025.97
2016-11-21T06:52:52.360Z,1025.93
2016-11-21T06:53:52.350Z,1025.91
2016-11-21T06:54:52.340Z,1025.91
2016-11-21T06:55:52.332Z,1025.83
2016-11-21T06:56:52.319Z,1025.84
2016-11-21T06:57:52.309Z,1025.83
2016-11-21T06:58:52.299Z,1025.76
2016-11-21T06:59:52.287Z,1025.73
2016-11-21T07:00:52.277Z,1025.67
2016-11-21T07:01:52.267Z,1025.65
2016-11-21T07:02:52.257Z,1025.66
2016-11-21T07:03:52.244Z,1025.66
2016-11-21T07:04:52.234Z,1025.62
2016-11-21T07:05:52.224Z,1025.59
2016-11-21T07:06:52.215Z,1025.6
2016-11-21T07:07:52.203Z,1025.55
2016-11-21T07:08:52.194Z,1025.52
2016-11-21T07:09:52.184Z,1025.47
2016-11-21T07:10:52.173Z,1025.45
2016-11-21T07:11:52.163Z,1025.47
2016-11-21T07:12:52.153Z,1025.44
2016-11-21T07:13:52.142Z,1025.41
2016-11-21T07:14:52.132Z,1025.35
2016-11-21T07:15:52.122Z,1025.33
2016-11-21T07:16:52.110Z,1025.27
2016-11-21T07:17:52.102Z,1025.29
2016-11-21T07:18:52.091Z,1025.28
2016-11-21T07:19:52.082Z,1025.24
2016-11-21T07:20:52.072Z,1025.2
2016-11-21T07:21:52.060Z,1025.11
2016-11-21T07:22:52.053Z,1025.08
2016-11-21T07:23:52.041Z,1025.05
2016-11-21T07:24:52.039Z,1024.97
2016-11-21T07:25:52.021Z,1024.89
2016-11-21T07:26:52.011Z,1024.83
2016-11-21T07:27:52.003Z,1024.79
2016-11-21T07:28:51.993Z,1024.75
2016-11-21T07:29:51.983Z,1024.68
2016-11-21T07:30:51.974Z,1024.65
2016-11-21T07:31:51.964Z,1024.61
2016-11-21T07:32:51.954Z,1024.55
2016-11-21T07:33:51.945Z,1024.51
2016-11-21T07:34:51.934Z,1024.49
2016-11-21T07:35:51.927Z,1024.43
2016-11-21T07:36:51.916Z,1024.39
2016-11-21T07:37:51.906Z,1024.39
2016-11-21T07:38:51.897Z,1024.41
2016-11-21T07:39:51.889Z,1024.41
2016-11-21T07:40:51.882Z,1024.38
2016-11-21T07:41:51.869Z,1024.39
2016-11-21T07:42:51.859Z,1024.38
2016-11-21T07:43:51.850Z,1024.37
2016-11-21T07:44:51.843Z,1024.36
2016-11-21T07:45:51.832Z,1024.37
2016-11-21T07:46:51.825Z,1024.33
2016-11-21T07:47:51.815Z,1024.32
2016-11-21T07:48:51.806Z,1024.33
2016-11-21T07:49:51.797Z,1024.33
2016-11-21T07:50:51.789Z,1024.29
2016-11-21T07:51:51.779Z,1024.26
2016-11-21T07:52:51.771Z,1024.2
2016-11-21T07:53:51.763Z,1024.17
2016-11-21T07:54:51.751Z,1024.15
2016-11-21T07:55:51.746Z,1024.08
2016-11-21T07:56:51.736Z,1024.06
2016-11-21T07:57:51.727Z,1024.01
2016-11-21T07:58:51.718Z,1023.93
2016-11-21T07:59:51.711Z,1023.88
2016-11-21T08:00:51.702Z,1023.8
2016-11-21T08:01:51.692Z,1023.75
2016-11-21T08:02:51.685Z,1023.74
2016-11-21T08:03:51.680Z,1023.73
2016-11-21T08:04:51.668Z,1023.66
2016-11-21T08:05:51.658Z,1023.65
2016-11-21T08:06:51.652Z,1023.59
2016-11-21T08:08:17.314Z,1023.52
2016-11-21T08:08:51.632Z,1023.5
2016-11-21T08:09:51.623Z,1023.48
2016-11-21T08:10:51.615Z,1023.42
2016-11-21T08:11:51.606Z,1023.35
2016-11-21T08:12:51.598Z,1023.32
2016-11-21T08:13:51.591Z,1023.33
2016-11-21T08:14:51.583Z,1023.19
2016-11-21T08:15:51.574Z,1023.22
2016-11-21T08:16:51.564Z,1023.16
2016-11-21T08:17:51.557Z,1023.2
2016-11-21T08:18:51.549Z,1023.21
2016-11-21T08:19:51.540Z,1023.17
2016-11-21T08:20:51.534Z,1023.17
2016-11-21T08:21:51.526Z,1023.16
2016-11-21T08:22:51.516Z,1023.15
2016-11-21T08:23:51.510Z,1023.16
2016-11-21T08:24:51.503Z,1023.07
2016-11-21T08:25:51.493Z,1023.1
2016-11-21T08:26:51.486Z,1023.06
2016-11-21T08:27:51.479Z,1023.05
2016-11-21T08:28:51.472Z,1023.01
2016-11-21T08:29:51.465Z,1023.01
2016-11-21T08:30:51.458Z,1022.98
2016-11-21T08:31:51.447Z,1022.98
2016-11-21T08:32:51.442Z,1022.93
2016-11-21T08:33:51.441Z,1022.89
2016-11-21T08:34:51.425Z,1022.86
2016-11-21T08:35:51.420Z,1022.84
2016-11-21T08:36:51.415Z,1022.84
2016-11-21T08:37:51.406Z,1022.82
2016-11-21T08:38:51.398Z,1022.83
2016-11-21T08:39:51.389Z,1022.82
2016-11-21T08:40:51.384Z,1022.78
2016-11-21T08:41:51.376Z,1022.76
2016-11-21T08:42:51.372Z,1022.75
2016-11-21T08:43:51.360Z,1022.75
2016-11-21T08:44:51.353Z,1022.66
2016-11-21T08:45:51.347Z,1022.68
2016-11-21T08:46:51.340Z,1022.61
2016-11-21T08:47:51.330Z,1022.59
2016-11-21T08:48:51.326Z,1022.55
2016-11-21T08:49:51.318Z,1022.51
2016-11-21T08:50:51.311Z,1022.49
2016-11-21T08:51:51.302Z,1022.43
2016-11-21T08:52:51.299Z,1022.39
2016-11-21T08:53:51.294Z,1022.34
2016-11-21T08:54:51.283Z,1022.32
2016-11-21T08:55:51.277Z,1022.31
2016-11-21T08:56:51.270Z,1022.3
2016-11-21T08:57:51.261Z,1022.3
2016-11-21T08:58:51.256Z,1022.26
2016-11-21T08:59:51.250Z,1022.25
2016-11-21T09:00:51.243Z,1022.25
2016-11-21T09:01:51.236Z,1022.26
2016-11-21T09:02:51.230Z,1022.24
2016-11-21T09:03:51.221Z,1022.28
2016-11-21T09:04:51.214Z,1022.26
2016-11-21T09:05:51.207Z,1022.31
2016-11-21T09:06:51.203Z,1022.31
2016-11-21T09:07:51.197Z,1022.32
2016-11-21T09:08:51.189Z,1022.35
2016-11-21T09:09:51.183Z,1022.33
2016-11-21T09:10:51.175Z,1022.31
2016-11-21T09:11:51.167Z,1022.24
2016-11-21T09:12:51.163Z,1022.14
2016-11-21T09:13:51.156Z,1022.12
2016-11-21T09:14:51.151Z,1022.09
2016-11-21T09:15:51.142Z,1022.1
2016-11-21T09:16:51.137Z,1022.14
2016-11-21T09:17:51.129Z,1022.1
2016-11-21T09:18:51.124Z,1022.16
2016-11-21T09:19:51.117Z,1022.17
2016-11-21T09:20:51.112Z,1022.2
2016-11-21T09:21:51.106Z,1022.16
2016-11-21T09:22:51.096Z,1022.12
2016-11-21T09:23:51.093Z,1022.08
2016-11-21T09:24:51.087Z,1022.04
2016-11-21T09:25:51.080Z,1022.05
2016-11-21T09:26:51.073Z,1022.07
2016-11-21T09:27:51.068Z,1022.07
2016-11-21T09:28:51.062Z,1022.08
2016-11-21T09:29:51.055Z,1022.09
2016-11-21T09:30:51.048Z,1022.12
2016-11-21T09:31:51.043Z,1022.12
2016-11-21T09:32:51.036Z,1022.06
2016-11-21T09:33:51.027Z,1022.01
2016-11-21T09:34:51.022Z,1021.94
2016-11-21T09:35:51.016Z,1021.87
2016-11-21T09:36:51.010Z,1021.8
2016-11-21T09:37:51.005Z,1021.76
2016-11-21T09:38:50.996Z,1021.74
2016-11-21T09:39:50.992Z,1021.76
2016-11-21T09:40:50.983Z,1021.74
2016-11-21T09:41:50.980Z,1021.71
2016-11-21T09:42:50.974Z,1021.7
2016-11-21T09:43:50.967Z,1021.65
2016-11-21T09:44:50.960Z,1021.58
2016-11-21T09:45:50.956Z,1021.59
2016-11-21T09:46:50.948Z,1021.56
2016-11-21T09:47:50.942Z,1021.51
2016-11-21T09:48:50.935Z,1021.5
2016-11-21T09:49:50.930Z,1021.51
2016-11-21T09:50:50.924Z,1021.47
2016-11-21T09:51:50.919Z,1021.39
2016-11-21T09:52:50.912Z,1021.34
2016-11-21T09:53:50.908Z,1021.27
2016-11-21T09:54:50.901Z,1021.26
2016-11-21T09:55:50.894Z,1021.25
2016-11-21T09:56:50.891Z,1021.23
2016-11-21T09:57:50.885Z,1021.27
2016-11-21T09:58:50.881Z,1021.25
2016-11-21T09:59:50.874Z,1021.19
2016-11-21T10:00:50.868Z,1021.13
2016-11-21T10:01:50.861Z,1021.11
2016-11-21T10:02:50.855Z,1021.12
2016-11-21T10:03:50.851Z,1021.07
2016-11-21T10:04:50.845Z,1021.05
2016-11-21T10:05:50.841Z,1021.03
2016-11-21T10:06:50.834Z,1021.01
2016-11-21T10:07:50.827Z,1020.99
2016-11-21T10:08:50.825Z,1020.98
2016-11-21T10:09:50.816Z,1020.92
2016-11-21T10:10:50.813Z,1020.94
2016-11-21T10:11:50.806Z,1020.93
2016-11-21T10:12:50.803Z,1020.94
2016-11-21T10:13:50.794Z,1021.01
2016-11-21T10:14:50.789Z,1021.01
2016-11-21T10:15:50.786Z,1021.04
2016-11-21T10:16:50.781Z,1021.08
2016-11-21T10:17:50.775Z,1021.06
2016-11-21T10:18:50.769Z,1021.04
2016-11-21T10:19:50.765Z,1021.11
2016-11-21T10:20:50.759Z,1021.13
2016-11-21T10:21:50.752Z,1021.19
2016-11-21T10:22:50.749Z,1021.2
2016-11-21T10:23:50.742Z,1021.21
2016-11-21T10:24:50.738Z,1021.21
2016-11-21T10:25:50.734Z,1021.21
2016-11-21T10:26:50.726Z,1021.2
2016-11-21T10:27:50.721Z,1021.22
2016-11-21T10:28:50.714Z,1021.24
2016-11-21T10:30:09.918Z,1021.25
2016-11-21T10:30:50.709Z,1021.24
2016-11-21T10:31:50.702Z,1021.25
2016-11-21T10:32:50.697Z,1021.24
2016-11-21T10:33:50.691Z,1021.21
2016-11-21T10:34:50.691Z,1021.24
2016-11-21T10:35:50.687Z,1021.23
2016-11-21T10:36:50.679Z,1021.24
2016-11-21T10:37:50.674Z,1021.28
2016-11-21T10:38:50.668Z,1021.34
2016-11-21T10:39:50.662Z,1021.36
2016-11-21T10:40:50.658Z,1021.29
2016-11-21T10:41:50.653Z,1021.28
2016-11-21T10:42:50.646Z,1021.21
2016-11-21T10:43:50.639Z,1021.17
2016-11-21T10:44:50.634Z,1021.14
2016-11-21T10:45:50.630Z,1021.13
2016-11-21T10:46:50.623Z,1021.14
2016-11-21T10:47:50.618Z,1021.21
2016-11-21T10:48:50.611Z,1021.22
2016-11-21T10:49:50.606Z,1021.21
2016-11-21T10:50:50.601Z,1021.2
2016-11-21T10:51:50.596Z,1021.22
2016-11-21T10:52:50.592Z,1021.24
2016-11-21T10:53:50.582Z,1021.28
2016-11-21T10:54:50.576Z,1021.28
2016-11-21T10:55:50.571Z,1021.28
2016-11-21T10:56:50.565Z,1021.3
2016-11-21T10:57:50.559Z,1021.26
2016-11-21T10:58:50.554Z,1021.24
2016-11-21T10:59:50.547Z,1021.2
2016-11-21T11:00:50.543Z,1021.16
2016-11-21T11:01:50.536Z,1021.12
2016-11-21T11:02:50.533Z,1021.1
2016-11-21T11:03:50.526Z,1021.07
2016-11-21T11:04:50.518Z,1021.02
2016-11-21T11:05:50.514Z,1020.93
2016-11-21T11:06:50.508Z,1020.93
2016-11-21T11:07:50.504Z,1020.89
2016-11-21T11:08:50.496Z,1020.85
2016-11-21T11:09:50.490Z,1020.89
2016-11-21T11:10:50.485Z,1020.83
2016-11-21T11:11:50.477Z,1020.78
2016-11-21T11:12:50.472Z,1020.78
2016-11-21T11:13:50.465Z,1020.8
2016-11-21T11:14:50.460Z,1020.79
2016-11-21T11:15:50.455Z,1020.76
2016-11-21T11:16:50.448Z,1020.79
2016-11-21T11:17:50.442Z,1020.74
2016-11-21T11:18:50.437Z,1020.75
2016-11-21T11:19:50.431Z,1020.73
2016-11-21T11:20:50.424Z,1020.72
2016-11-21T11:21:50.418Z,1020.68
2016-11-21T11:22:50.413Z,1020.69
2016-11-21T11:23:50.408Z,1020.62
2016-11-21T11:24:50.401Z,1020.57
2016-11-21T11:25:50.397Z,1020.49
2016-11-21T11:26:50.390Z,1020.52
2016-11-21T11:27:50.385Z,1020.49
2016-11-21T11:28:50.378Z,1020.52
2016-11-21T11:29:50.375Z,1020.46
2016-11-21T11:30:50.367Z,1020.46
2016-11-21T11:31:50.361Z,1020.48
2016-11-21T11:32:50.355Z,1020.47
2016-11-21T11:33:50.350Z,1020.51
2016-11-21T11:34:50.343Z,1020.48
2016-11-21T11:35:50.339Z,1020.46
2016-11-21T11:37:50.323Z,1020.48
2016-11-21T11:38:50.317Z,1020.46
2016-11-21T11:39:50.312Z,1020.48
2016-11-21T11:40:50.308Z,1020.53
2016-11-21T11:41:50.307Z,1020.51
2016-11-21T11:42:50.299Z,1020.51
2016-11-21T11:43:50.296Z,1020.47
2016-11-21T11:44:50.294Z,1020.45
2016-11-21T11:45:50.282Z,1020.44
2016-11-21T11:46:50.279Z,1020.42
2016-11-21T11:47:50.273Z,1020.44
2016-11-21T11:48:50.265Z,1020.4
2016-11-21T11:49:50.259Z,1020.37
2016-11-21T11:50:50.256Z,1020.46
2016-11-21T11:51:50.249Z,1020.42
2016-11-21T11:52:50.242Z,1020.52
2016-11-21T11:53:50.239Z,1020.53
2016-11-21T11:54:50.231Z,1020.48
2016-11-21T11:55:50.225Z,1020.44
2016-11-21T11:56:50.221Z,1020.44
2016-11-21T11:57:50.217Z,1020.48
2016-11-21T11:58:50.211Z,1020.47
2016-11-21T11:59:50.204Z,1020.47
2016-11-21T12:00:50.199Z,1020.52
2016-11-21T12:01:50.193Z,1020.51
2016-11-21T12:02:50.188Z,1020.58
2016-11-21T12:03:50.182Z,1020.61
2016-11-21T12:04:50.176Z,1020.58
2016-11-21T12:05:50.171Z,1020.58
2016-11-21T12:06:50.164Z,1020.59
2016-11-21T12:07:50.162Z,1020.61
2016-11-21T12:08:50.152Z,1020.58